<?xml version="1.0" encoding="UTF-8" standalone="no" ?>
<gpx xmlns="http://www.topografix.com/GPX/1/1" xmlns:xsi="http://www.w3.org/2001/XMLSchema-instance" xsi:schemaLocation="http://www.topografix.com/GPX/1/1 http://www.topografix.com/GPX/1/1/gpx.xsd" version="1.1" creator="VisuGPX - https://www.visugpx.com">
  <metadata>
    <name>rando tripous 2019</name>
    <desc><![CDATA[Tour de Grigny au départ du Club Sportif des Cheminots de Badan (CSCB)]]></desc>
  </metadata>
  <wpt lat="45.62164" lon="4.78867">
    <ele>237.4</ele>
  </wpt>
  <wpt lat="45.62164" lon="4.78867">
    <ele>237.4</ele>
    <name><![CDATA[traversée dangereuse]]></name>
  </wpt>
  <wpt lat="45.61343" lon="4.79843">
    <ele>170.8</ele>
    <name><![CDATA[traversée dangereuse]]></name>
  </wpt>
  <trk>
    <name><![CDATA[20190301220245-CiM2U]]></name>
    <trkseg>
      <trkpt lat="45.60398" lon="4.77666">
        <ele>149.62</ele>
        <time>2019-03-01T07:00:28Z</time>
      </trkpt>
      <trkpt lat="45.60398" lon="4.77666">
        <ele>149.62</ele>
        <time>2019-03-01T07:00:28Z</time>
      </trkpt>
      <trkpt lat="45.60398" lon="4.77666">
        <ele>152.99</ele>
        <time>2019-03-01T07:00:33Z</time>
      </trkpt>
      <trkpt lat="45.60398" lon="4.77666">
        <ele>222.2</ele>
        <time>2019-03-01T07:00:35Z</time>
      </trkpt>
      <trkpt lat="45.60398" lon="4.77666">
        <ele>222.2</ele>
        <time>2019-03-01T07:00:36Z</time>
      </trkpt>
      <trkpt lat="45.60398" lon="4.77666">
        <ele>167.89</ele>
        <time>2019-03-01T07:00:39Z</time>
      </trkpt>
      <trkpt lat="45.60398" lon="4.77666">
        <ele>167.89</ele>
        <time>2019-03-01T07:00:40Z</time>
      </trkpt>
      <trkpt lat="45.60397" lon="4.77666">
        <ele>167.89</ele>
        <time>2019-03-01T07:00:56Z</time>
      </trkpt>
      <trkpt lat="45.60421" lon="4.77645">
        <ele>168.37</ele>
        <time>2019-03-01T07:01:14Z</time>
      </trkpt>
      <trkpt lat="45.60436" lon="4.77653">
        <ele>169.33</ele>
        <time>2019-03-01T07:01:25Z</time>
      </trkpt>
      <trkpt lat="45.60453" lon="4.77671">
        <ele>169.33</ele>
        <time>2019-03-01T07:01:41Z</time>
      </trkpt>
      <trkpt lat="45.60471" lon="4.77685">
        <ele>169.33</ele>
        <time>2019-03-01T07:01:57Z</time>
      </trkpt>
      <trkpt lat="45.60492" lon="4.77698">
        <ele>169.81</ele>
        <time>2019-03-01T07:02:16Z</time>
      </trkpt>
      <trkpt lat="45.60506" lon="4.77703">
        <ele>170.29</ele>
        <time>2019-03-01T07:02:32Z</time>
      </trkpt>
      <trkpt lat="45.60525" lon="4.77705">
        <ele>170.29</ele>
        <time>2019-03-01T07:02:46Z</time>
      </trkpt>
      <trkpt lat="45.60541" lon="4.77706">
        <ele>170.29</ele>
        <time>2019-03-01T07:03:00Z</time>
      </trkpt>
      <trkpt lat="45.60564" lon="4.77726">
        <ele>170.29</ele>
        <time>2019-03-01T07:03:17Z</time>
      </trkpt>
      <trkpt lat="45.60575" lon="4.77741">
        <ele>168.37</ele>
        <time>2019-03-01T07:03:34Z</time>
      </trkpt>
      <trkpt lat="45.60607" lon="4.77748">
        <ele>168.37</ele>
        <time>2019-03-01T07:04:03Z</time>
      </trkpt>
      <trkpt lat="45.60611" lon="4.77741">
        <ele>168.37</ele>
        <time>2019-03-01T07:04:09Z</time>
      </trkpt>
      <trkpt lat="45.60626" lon="4.7772">
        <ele>168.85</ele>
        <time>2019-03-01T07:04:25Z</time>
      </trkpt>
      <trkpt lat="45.60642" lon="4.77698">
        <ele>167.89</ele>
        <time>2019-03-01T07:04:42Z</time>
      </trkpt>
      <trkpt lat="45.60657" lon="4.77678">
        <ele>167.41</ele>
        <time>2019-03-01T07:04:59Z</time>
      </trkpt>
      <trkpt lat="45.60675" lon="4.77661">
        <ele>166.93</ele>
        <time>2019-03-01T07:05:16Z</time>
      </trkpt>
      <trkpt lat="45.60694" lon="4.77645">
        <ele>166.45</ele>
        <time>2019-03-01T07:05:33Z</time>
      </trkpt>
      <trkpt lat="45.60703" lon="4.7763">
        <ele>166.45</ele>
        <time>2019-03-01T07:05:46Z</time>
      </trkpt>
      <trkpt lat="45.60719" lon="4.77607">
        <ele>166.45</ele>
        <time>2019-03-01T07:06:03Z</time>
      </trkpt>
      <trkpt lat="45.60734" lon="4.77591">
        <ele>166.93</ele>
        <time>2019-03-01T07:06:17Z</time>
      </trkpt>
      <trkpt lat="45.60748" lon="4.77572">
        <ele>167.89</ele>
        <time>2019-03-01T07:06:33Z</time>
      </trkpt>
      <trkpt lat="45.60752" lon="4.77579">
        <ele>168.85</ele>
        <time>2019-03-01T07:06:45Z</time>
      </trkpt>
      <trkpt lat="45.60772" lon="4.7759">
        <ele>168.85</ele>
        <time>2019-03-01T07:06:59Z</time>
      </trkpt>
      <trkpt lat="45.60774" lon="4.77592">
        <ele>168.85</ele>
        <time>2019-03-01T07:07:00Z</time>
      </trkpt>
      <trkpt lat="45.60784" lon="4.77602">
        <ele>168.85</ele>
        <time>2019-03-01T07:07:04Z</time>
      </trkpt>
      <trkpt lat="45.60798" lon="4.77625">
        <ele>168.37</ele>
        <time>2019-03-01T07:07:19Z</time>
      </trkpt>
      <trkpt lat="45.60805" lon="4.77652">
        <ele>168.37</ele>
        <time>2019-03-01T07:07:35Z</time>
      </trkpt>
      <trkpt lat="45.60814" lon="4.77673">
        <ele>167.89</ele>
        <time>2019-03-01T07:07:52Z</time>
      </trkpt>
      <trkpt lat="45.60815" lon="4.77674">
        <ele>168.37</ele>
        <time>2019-03-01T07:07:53Z</time>
      </trkpt>
      <trkpt lat="45.60821" lon="4.77688">
        <ele>167.89</ele>
        <time>2019-03-01T07:08:02Z</time>
      </trkpt>
      <trkpt lat="45.60828" lon="4.77719">
        <ele>167.89</ele>
        <time>2019-03-01T07:08:22Z</time>
      </trkpt>
      <trkpt lat="45.60838" lon="4.77747">
        <ele>167.89</ele>
        <time>2019-03-01T07:08:41Z</time>
      </trkpt>
      <trkpt lat="45.60844" lon="4.77778">
        <ele>169.81</ele>
        <time>2019-03-01T07:09:01Z</time>
      </trkpt>
      <trkpt lat="45.60856" lon="4.77779">
        <ele>169.81</ele>
        <time>2019-03-01T07:09:14Z</time>
      </trkpt>
      <trkpt lat="45.60866" lon="4.77773">
        <ele>169.81</ele>
        <time>2019-03-01T07:09:22Z</time>
      </trkpt>
      <trkpt lat="45.60885" lon="4.77762">
        <ele>170.29</ele>
        <time>2019-03-01T07:09:39Z</time>
      </trkpt>
      <trkpt lat="45.60902" lon="4.77752">
        <ele>170.77</ele>
        <time>2019-03-01T07:09:58Z</time>
      </trkpt>
      <trkpt lat="45.60918" lon="4.77742">
        <ele>170.29</ele>
        <time>2019-03-01T07:10:13Z</time>
      </trkpt>
      <trkpt lat="45.60942" lon="4.77728">
        <ele>170.29</ele>
        <time>2019-03-01T07:10:32Z</time>
      </trkpt>
      <trkpt lat="45.60962" lon="4.77715">
        <ele>170.77</ele>
        <time>2019-03-01T07:10:50Z</time>
      </trkpt>
      <trkpt lat="45.60973" lon="4.77692">
        <ele>169.81</ele>
        <time>2019-03-01T07:11:05Z</time>
      </trkpt>
      <trkpt lat="45.60971" lon="4.77687">
        <ele>169.81</ele>
        <time>2019-03-01T07:11:08Z</time>
      </trkpt>
      <trkpt lat="45.60969" lon="4.77663">
        <ele>169.81</ele>
        <time>2019-03-01T07:11:24Z</time>
      </trkpt>
      <trkpt lat="45.60967" lon="4.77655">
        <ele>169.33</ele>
        <time>2019-03-01T07:11:30Z</time>
      </trkpt>
      <trkpt lat="45.60965" lon="4.77636">
        <ele>168.85</ele>
        <time>2019-03-01T07:11:41Z</time>
      </trkpt>
      <trkpt lat="45.60957" lon="4.7761">
        <ele>168.85</ele>
        <time>2019-03-01T07:11:56Z</time>
      </trkpt>
      <trkpt lat="45.60955" lon="4.77598">
        <ele>168.37</ele>
        <time>2019-03-01T07:12:03Z</time>
      </trkpt>
      <trkpt lat="45.60955" lon="4.77584">
        <ele>168.37</ele>
        <time>2019-03-01T07:12:14Z</time>
      </trkpt>
      <trkpt lat="45.60954" lon="4.77582">
        <ele>168.37</ele>
        <time>2019-03-01T07:12:15Z</time>
      </trkpt>
      <trkpt lat="45.60952" lon="4.77555">
        <ele>167.41</ele>
        <time>2019-03-01T07:12:31Z</time>
      </trkpt>
      <trkpt lat="45.6096" lon="4.77555">
        <ele>167.89</ele>
        <time>2019-03-01T07:12:44Z</time>
      </trkpt>
      <trkpt lat="45.6098" lon="4.77556">
        <ele>168.37</ele>
        <time>2019-03-01T07:13:00Z</time>
      </trkpt>
      <trkpt lat="45.61" lon="4.77551">
        <ele>167.41</ele>
        <time>2019-03-01T07:13:18Z</time>
      </trkpt>
      <trkpt lat="45.61019" lon="4.77543">
        <ele>167.41</ele>
        <time>2019-03-01T07:13:34Z</time>
      </trkpt>
      <trkpt lat="45.61037" lon="4.77535">
        <ele>167.41</ele>
        <time>2019-03-01T07:13:50Z</time>
      </trkpt>
      <trkpt lat="45.61059" lon="4.77523">
        <ele>168.37</ele>
        <time>2019-03-01T07:14:08Z</time>
      </trkpt>
      <trkpt lat="45.61077" lon="4.77512">
        <ele>168.85</ele>
        <time>2019-03-01T07:14:25Z</time>
      </trkpt>
      <trkpt lat="45.61085" lon="4.77506">
        <ele>168.85</ele>
        <time>2019-03-01T07:14:32Z</time>
      </trkpt>
      <trkpt lat="45.61091" lon="4.77505">
        <ele>168.37</ele>
        <time>2019-03-01T07:14:37Z</time>
      </trkpt>
      <trkpt lat="45.61108" lon="4.77489">
        <ele>168.37</ele>
        <time>2019-03-01T07:14:55Z</time>
      </trkpt>
      <trkpt lat="45.61126" lon="4.77476">
        <ele>168.37</ele>
        <time>2019-03-01T07:15:11Z</time>
      </trkpt>
      <trkpt lat="45.6114" lon="4.77462">
        <ele>168.85</ele>
        <time>2019-03-01T07:15:25Z</time>
      </trkpt>
      <trkpt lat="45.61155" lon="4.77455">
        <ele>168.37</ele>
        <time>2019-03-01T07:15:38Z</time>
      </trkpt>
      <trkpt lat="45.61162" lon="4.7745">
        <ele>168.37</ele>
        <time>2019-03-01T07:15:45Z</time>
      </trkpt>
      <trkpt lat="45.61183" lon="4.77434">
        <ele>168.37</ele>
        <time>2019-03-01T07:16:02Z</time>
      </trkpt>
      <trkpt lat="45.61204" lon="4.77418">
        <ele>168.37</ele>
        <time>2019-03-01T07:16:22Z</time>
      </trkpt>
      <trkpt lat="45.61222" lon="4.77408">
        <ele>167.89</ele>
        <time>2019-03-01T07:16:39Z</time>
      </trkpt>
      <trkpt lat="45.61248" lon="4.77402">
        <ele>170.29</ele>
        <time>2019-03-01T07:16:59Z</time>
      </trkpt>
      <trkpt lat="45.61258" lon="4.77406">
        <ele>170.29</ele>
        <time>2019-03-01T07:17:08Z</time>
      </trkpt>
      <trkpt lat="45.61286" lon="4.77414">
        <ele>172.69</ele>
        <time>2019-03-01T07:17:30Z</time>
      </trkpt>
      <trkpt lat="45.61309" lon="4.77423">
        <ele>175.1</ele>
        <time>2019-03-01T07:17:50Z</time>
      </trkpt>
      <trkpt lat="45.61327" lon="4.7743">
        <ele>176.06</ele>
        <time>2019-03-01T07:18:05Z</time>
      </trkpt>
      <trkpt lat="45.61341" lon="4.77441">
        <ele>177.02</ele>
        <time>2019-03-01T07:18:18Z</time>
      </trkpt>
      <trkpt lat="45.61361" lon="4.77456">
        <ele>178.94</ele>
        <time>2019-03-01T07:18:38Z</time>
      </trkpt>
      <trkpt lat="45.61381" lon="4.77473">
        <ele>180.38</ele>
        <time>2019-03-01T07:18:57Z</time>
      </trkpt>
      <trkpt lat="45.61395" lon="4.77482">
        <ele>181.35</ele>
        <time>2019-03-01T07:19:08Z</time>
      </trkpt>
      <trkpt lat="45.61402" lon="4.77486">
        <ele>182.31</ele>
        <time>2019-03-01T07:19:14Z</time>
      </trkpt>
      <trkpt lat="45.61419" lon="4.775">
        <ele>184.23</ele>
        <time>2019-03-01T07:19:34Z</time>
      </trkpt>
      <trkpt lat="45.61419" lon="4.77505">
        <ele>183.75</ele>
        <time>2019-03-01T07:19:39Z</time>
      </trkpt>
      <trkpt lat="45.61422" lon="4.7751">
        <ele>184.23</ele>
        <time>2019-03-01T07:19:43Z</time>
      </trkpt>
      <trkpt lat="45.61431" lon="4.77532">
        <ele>186.63</ele>
        <time>2019-03-01T07:19:59Z</time>
      </trkpt>
      <trkpt lat="45.61437" lon="4.77554">
        <ele>188.08</ele>
        <time>2019-03-01T07:20:14Z</time>
      </trkpt>
      <trkpt lat="45.61445" lon="4.77579">
        <ele>189.52</ele>
        <time>2019-03-01T07:20:30Z</time>
      </trkpt>
      <trkpt lat="45.61448" lon="4.77593">
        <ele>190.48</ele>
        <time>2019-03-01T07:20:39Z</time>
      </trkpt>
      <trkpt lat="45.61453" lon="4.77606">
        <ele>191.44</ele>
        <time>2019-03-01T07:20:50Z</time>
      </trkpt>
      <trkpt lat="45.61458" lon="4.77618">
        <ele>191.92</ele>
        <time>2019-03-01T07:20:58Z</time>
      </trkpt>
      <trkpt lat="45.61466" lon="4.77636">
        <ele>193.36</ele>
        <time>2019-03-01T07:21:12Z</time>
      </trkpt>
      <trkpt lat="45.61469" lon="4.77654">
        <ele>194.32</ele>
        <time>2019-03-01T07:21:25Z</time>
      </trkpt>
      <trkpt lat="45.61461" lon="4.7767">
        <ele>195.77</ele>
        <time>2019-03-01T07:21:37Z</time>
      </trkpt>
      <trkpt lat="45.61454" lon="4.77683">
        <ele>196.73</ele>
        <time>2019-03-01T07:21:47Z</time>
      </trkpt>
      <trkpt lat="45.61443" lon="4.77703">
        <ele>198.65</ele>
        <time>2019-03-01T07:22:02Z</time>
      </trkpt>
      <trkpt lat="45.61435" lon="4.77715">
        <ele>199.13</ele>
        <time>2019-03-01T07:22:13Z</time>
      </trkpt>
      <trkpt lat="45.61423" lon="4.77729">
        <ele>199.13</ele>
        <time>2019-03-01T07:22:24Z</time>
      </trkpt>
      <trkpt lat="45.61421" lon="4.7773">
        <ele>199.13</ele>
        <time>2019-03-01T07:22:26Z</time>
      </trkpt>
      <trkpt lat="45.61415" lon="4.77749">
        <ele>199.13</ele>
        <time>2019-03-01T07:22:37Z</time>
      </trkpt>
      <trkpt lat="45.61404" lon="4.77765">
        <ele>199.13</ele>
        <time>2019-03-01T07:22:51Z</time>
      </trkpt>
      <trkpt lat="45.61395" lon="4.77778">
        <ele>199.13</ele>
        <time>2019-03-01T07:23:05Z</time>
      </trkpt>
      <trkpt lat="45.61394" lon="4.77782">
        <ele>199.61</ele>
        <time>2019-03-01T07:23:12Z</time>
      </trkpt>
      <trkpt lat="45.61387" lon="4.77791">
        <ele>199.61</ele>
        <time>2019-03-01T07:25:32Z</time>
      </trkpt>
      <trkpt lat="45.61389" lon="4.77815">
        <ele>202.49</ele>
        <time>2019-03-01T07:25:49Z</time>
      </trkpt>
      <trkpt lat="45.61392" lon="4.77822">
        <ele>202.98</ele>
        <time>2019-03-01T07:25:54Z</time>
      </trkpt>
      <trkpt lat="45.61398" lon="4.77838">
        <ele>203.94</ele>
        <time>2019-03-01T07:26:04Z</time>
      </trkpt>
      <trkpt lat="45.61399" lon="4.77843">
        <ele>204.42</ele>
        <time>2019-03-01T07:26:08Z</time>
      </trkpt>
      <trkpt lat="45.61407" lon="4.77866">
        <ele>206.34</ele>
        <time>2019-03-01T07:26:23Z</time>
      </trkpt>
      <trkpt lat="45.61409" lon="4.7787">
        <ele>206.82</ele>
        <time>2019-03-01T07:26:26Z</time>
      </trkpt>
      <trkpt lat="45.61418" lon="4.7789">
        <ele>208.26</ele>
        <time>2019-03-01T07:26:42Z</time>
      </trkpt>
      <trkpt lat="45.61429" lon="4.77908">
        <ele>210.67</ele>
        <time>2019-03-01T07:26:58Z</time>
      </trkpt>
      <trkpt lat="45.61443" lon="4.77917">
        <ele>211.15</ele>
        <time>2019-03-01T07:27:12Z</time>
      </trkpt>
      <trkpt lat="45.61462" lon="4.77915">
        <ele>211.63</ele>
        <time>2019-03-01T07:27:28Z</time>
      </trkpt>
      <trkpt lat="45.61482" lon="4.77907">
        <ele>211.63</ele>
        <time>2019-03-01T07:27:46Z</time>
      </trkpt>
      <trkpt lat="45.61485" lon="4.77908">
        <ele>212.11</ele>
        <time>2019-03-01T07:27:49Z</time>
      </trkpt>
      <trkpt lat="45.61487" lon="4.77911">
        <ele>212.11</ele>
        <time>2019-03-01T07:28:02Z</time>
      </trkpt>
      <trkpt lat="45.61487" lon="4.77911">
        <ele>211.15</ele>
        <time>2019-03-01T07:28:17Z</time>
      </trkpt>
      <trkpt lat="45.61487" lon="4.77912">
        <ele>211.15</ele>
        <time>2019-03-01T07:28:58Z</time>
      </trkpt>
      <trkpt lat="45.61486" lon="4.77911">
        <ele>211.63</ele>
        <time>2019-03-01T07:29:08Z</time>
      </trkpt>
      <trkpt lat="45.61488" lon="4.77912">
        <ele>211.15</ele>
        <time>2019-03-01T07:29:17Z</time>
      </trkpt>
      <trkpt lat="45.61489" lon="4.77911">
        <ele>212.11</ele>
        <time>2019-03-01T07:29:34Z</time>
      </trkpt>
      <trkpt lat="45.61491" lon="4.77914">
        <ele>212.59</ele>
        <time>2019-03-01T07:29:39Z</time>
      </trkpt>
      <trkpt lat="45.61498" lon="4.77928">
        <ele>211.63</ele>
        <time>2019-03-01T07:29:54Z</time>
      </trkpt>
      <trkpt lat="45.615" lon="4.77928">
        <ele>210.67</ele>
        <time>2019-03-01T07:29:56Z</time>
      </trkpt>
      <trkpt lat="45.61505" lon="4.77925">
        <ele>210.67</ele>
        <time>2019-03-01T07:30:01Z</time>
      </trkpt>
      <trkpt lat="45.61522" lon="4.77914">
        <ele>207.78</ele>
        <time>2019-03-01T07:30:19Z</time>
      </trkpt>
      <trkpt lat="45.61534" lon="4.77904">
        <ele>205.86</ele>
        <time>2019-03-01T07:30:34Z</time>
      </trkpt>
      <trkpt lat="45.61542" lon="4.77902">
        <ele>204.9</ele>
        <time>2019-03-01T07:30:43Z</time>
      </trkpt>
      <trkpt lat="45.61563" lon="4.77905">
        <ele>202.98</ele>
        <time>2019-03-01T07:31:01Z</time>
      </trkpt>
      <trkpt lat="45.6158" lon="4.77904">
        <ele>202.01</ele>
        <time>2019-03-01T07:31:14Z</time>
      </trkpt>
      <trkpt lat="45.61585" lon="4.77905">
        <ele>202.49</ele>
        <time>2019-03-01T07:31:18Z</time>
      </trkpt>
      <trkpt lat="45.61599" lon="4.77902">
        <ele>202.98</ele>
        <time>2019-03-01T07:31:28Z</time>
      </trkpt>
      <trkpt lat="45.61622" lon="4.779">
        <ele>203.46</ele>
        <time>2019-03-01T07:31:47Z</time>
      </trkpt>
      <trkpt lat="45.61632" lon="4.77921">
        <ele>204.42</ele>
        <time>2019-03-01T07:32:00Z</time>
      </trkpt>
      <trkpt lat="45.61638" lon="4.77946">
        <ele>206.34</ele>
        <time>2019-03-01T07:32:17Z</time>
      </trkpt>
      <trkpt lat="45.61638" lon="4.77955">
        <ele>207.3</ele>
        <time>2019-03-01T07:32:24Z</time>
      </trkpt>
      <trkpt lat="45.61637" lon="4.7796">
        <ele>207.78</ele>
        <time>2019-03-01T07:32:27Z</time>
      </trkpt>
      <trkpt lat="45.6163" lon="4.77983">
        <ele>209.7</ele>
        <time>2019-03-01T07:32:42Z</time>
      </trkpt>
      <trkpt lat="45.61629" lon="4.78006">
        <ele>212.11</ele>
        <time>2019-03-01T07:32:57Z</time>
      </trkpt>
      <trkpt lat="45.61634" lon="4.78014">
        <ele>214.03</ele>
        <time>2019-03-01T07:33:11Z</time>
      </trkpt>
      <trkpt lat="45.6164" lon="4.77991">
        <ele>216.43</ele>
        <time>2019-03-01T07:33:28Z</time>
      </trkpt>
      <trkpt lat="45.61651" lon="4.77983">
        <ele>217.4</ele>
        <time>2019-03-01T07:33:40Z</time>
      </trkpt>
      <trkpt lat="45.61668" lon="4.77981">
        <ele>217.88</ele>
        <time>2019-03-01T07:33:54Z</time>
      </trkpt>
      <trkpt lat="45.61679" lon="4.77963">
        <ele>218.84</ele>
        <time>2019-03-01T07:34:09Z</time>
      </trkpt>
      <trkpt lat="45.61673" lon="4.77943">
        <ele>218.84</ele>
        <time>2019-03-01T07:34:23Z</time>
      </trkpt>
      <trkpt lat="45.6167" lon="4.77929">
        <ele>220.76</ele>
        <time>2019-03-01T07:34:32Z</time>
      </trkpt>
      <trkpt lat="45.61669" lon="4.77901">
        <ele>221.72</ele>
        <time>2019-03-01T07:34:48Z</time>
      </trkpt>
      <trkpt lat="45.6167" lon="4.77894">
        <ele>221.72</ele>
        <time>2019-03-01T07:34:52Z</time>
      </trkpt>
      <trkpt lat="45.61679" lon="4.77889">
        <ele>222.2</ele>
        <time>2019-03-01T07:35:02Z</time>
      </trkpt>
      <trkpt lat="45.61697" lon="4.7789">
        <ele>223.64</ele>
        <time>2019-03-01T07:35:17Z</time>
      </trkpt>
      <trkpt lat="45.61716" lon="4.7789">
        <ele>225.57</ele>
        <time>2019-03-01T07:35:32Z</time>
      </trkpt>
      <trkpt lat="45.61736" lon="4.7789">
        <ele>227.01</ele>
        <time>2019-03-01T07:35:50Z</time>
      </trkpt>
      <trkpt lat="45.61751" lon="4.77891">
        <ele>228.93</ele>
        <time>2019-03-01T07:36:04Z</time>
      </trkpt>
      <trkpt lat="45.61767" lon="4.77892">
        <ele>230.85</ele>
        <time>2019-03-01T07:36:19Z</time>
      </trkpt>
      <trkpt lat="45.61776" lon="4.77891">
        <ele>231.33</ele>
        <time>2019-03-01T07:36:28Z</time>
      </trkpt>
      <trkpt lat="45.6179" lon="4.77874">
        <ele>232.3</ele>
        <time>2019-03-01T07:36:43Z</time>
      </trkpt>
      <trkpt lat="45.61797" lon="4.77868">
        <ele>232.78</ele>
        <time>2019-03-01T07:36:52Z</time>
      </trkpt>
      <trkpt lat="45.61803" lon="4.77869">
        <ele>233.26</ele>
        <time>2019-03-01T07:36:57Z</time>
      </trkpt>
      <trkpt lat="45.6181" lon="4.77873">
        <ele>233.74</ele>
        <time>2019-03-01T07:37:04Z</time>
      </trkpt>
      <trkpt lat="45.6183" lon="4.77861">
        <ele>235.18</ele>
        <time>2019-03-01T07:37:21Z</time>
      </trkpt>
      <trkpt lat="45.61849" lon="4.77847">
        <ele>235.66</ele>
        <time>2019-03-01T07:37:38Z</time>
      </trkpt>
      <trkpt lat="45.61867" lon="4.77831">
        <ele>234.22</ele>
        <time>2019-03-01T07:37:54Z</time>
      </trkpt>
      <trkpt lat="45.61887" lon="4.77834">
        <ele>234.22</ele>
        <time>2019-03-01T07:38:10Z</time>
      </trkpt>
      <trkpt lat="45.61907" lon="4.77843">
        <ele>235.66</ele>
        <time>2019-03-01T07:38:26Z</time>
      </trkpt>
      <trkpt lat="45.61925" lon="4.77851">
        <ele>236.14</ele>
        <time>2019-03-01T07:38:42Z</time>
      </trkpt>
      <trkpt lat="45.61942" lon="4.77859">
        <ele>238.54</ele>
        <time>2019-03-01T07:38:59Z</time>
      </trkpt>
      <trkpt lat="45.61966" lon="4.77864">
        <ele>240.47</ele>
        <time>2019-03-01T07:39:18Z</time>
      </trkpt>
      <trkpt lat="45.61986" lon="4.77869">
        <ele>241.43</ele>
        <time>2019-03-01T07:39:34Z</time>
      </trkpt>
      <trkpt lat="45.61998" lon="4.77881">
        <ele>241.91</ele>
        <time>2019-03-01T07:39:45Z</time>
      </trkpt>
      <trkpt lat="45.61985" lon="4.77888">
        <ele>244.31</ele>
        <time>2019-03-01T07:39:59Z</time>
      </trkpt>
      <trkpt lat="45.61982" lon="4.77901">
        <ele>247.2</ele>
        <time>2019-03-01T07:40:10Z</time>
      </trkpt>
      <trkpt lat="45.61975" lon="4.77918">
        <ele>249.6</ele>
        <time>2019-03-01T07:40:24Z</time>
      </trkpt>
      <trkpt lat="45.61963" lon="4.7793">
        <ele>252.48</ele>
        <time>2019-03-01T07:40:38Z</time>
      </trkpt>
      <trkpt lat="45.61957" lon="4.77938">
        <ele>253.93</ele>
        <time>2019-03-01T07:40:47Z</time>
      </trkpt>
      <trkpt lat="45.61949" lon="4.77961">
        <ele>256.33</ele>
        <time>2019-03-01T07:41:03Z</time>
      </trkpt>
      <trkpt lat="45.6194" lon="4.77985">
        <ele>257.77</ele>
        <time>2019-03-01T07:41:19Z</time>
      </trkpt>
      <trkpt lat="45.61933" lon="4.78011">
        <ele>259.21</ele>
        <time>2019-03-01T07:41:35Z</time>
      </trkpt>
      <trkpt lat="45.61932" lon="4.78013">
        <ele>259.21</ele>
        <time>2019-03-01T07:41:37Z</time>
      </trkpt>
      <trkpt lat="45.61921" lon="4.7804">
        <ele>258.25</ele>
        <time>2019-03-01T07:41:55Z</time>
      </trkpt>
      <trkpt lat="45.61917" lon="4.78055">
        <ele>258.25</ele>
        <time>2019-03-01T07:42:12Z</time>
      </trkpt>
      <trkpt lat="45.61914" lon="4.78064">
        <ele>258.25</ele>
        <time>2019-03-01T07:42:25Z</time>
      </trkpt>
      <trkpt lat="45.6191" lon="4.78084">
        <ele>258.25</ele>
        <time>2019-03-01T07:42:39Z</time>
      </trkpt>
      <trkpt lat="45.6191" lon="4.78101">
        <ele>256.33</ele>
        <time>2019-03-01T07:42:51Z</time>
      </trkpt>
      <trkpt lat="45.61914" lon="4.78102">
        <ele>256.81</ele>
        <time>2019-03-01T07:42:55Z</time>
      </trkpt>
      <trkpt lat="45.61926" lon="4.78104">
        <ele>256.81</ele>
        <time>2019-03-01T07:43:05Z</time>
      </trkpt>
      <trkpt lat="45.61951" lon="4.78101">
        <ele>257.29</ele>
        <time>2019-03-01T07:43:24Z</time>
      </trkpt>
      <trkpt lat="45.61971" lon="4.78102">
        <ele>257.29</ele>
        <time>2019-03-01T07:43:41Z</time>
      </trkpt>
      <trkpt lat="45.61994" lon="4.78118">
        <ele>258.25</ele>
        <time>2019-03-01T07:43:58Z</time>
      </trkpt>
      <trkpt lat="45.62004" lon="4.78133">
        <ele>259.21</ele>
        <time>2019-03-01T07:44:09Z</time>
      </trkpt>
      <trkpt lat="45.62013" lon="4.78152">
        <ele>260.17</ele>
        <time>2019-03-01T07:44:22Z</time>
      </trkpt>
      <trkpt lat="45.62016" lon="4.78159">
        <ele>260.65</ele>
        <time>2019-03-01T07:44:26Z</time>
      </trkpt>
      <trkpt lat="45.62019" lon="4.78164">
        <ele>261.14</ele>
        <time>2019-03-01T07:44:31Z</time>
      </trkpt>
      <trkpt lat="45.62032" lon="4.7818">
        <ele>263.06</ele>
        <time>2019-03-01T07:44:46Z</time>
      </trkpt>
      <trkpt lat="45.62049" lon="4.78184">
        <ele>264.02</ele>
        <time>2019-03-01T07:45:01Z</time>
      </trkpt>
      <trkpt lat="45.62069" lon="4.78176">
        <ele>266.42</ele>
        <time>2019-03-01T07:45:17Z</time>
      </trkpt>
      <trkpt lat="45.6207" lon="4.78177">
        <ele>266.42</ele>
        <time>2019-03-01T07:45:18Z</time>
      </trkpt>
      <trkpt lat="45.62088" lon="4.7818">
        <ele>267.38</ele>
        <time>2019-03-01T07:45:33Z</time>
      </trkpt>
      <trkpt lat="45.62097" lon="4.7818">
        <ele>268.35</ele>
        <time>2019-03-01T07:45:40Z</time>
      </trkpt>
      <trkpt lat="45.62106" lon="4.7821">
        <ele>266.9</ele>
        <time>2019-03-01T07:45:56Z</time>
      </trkpt>
      <trkpt lat="45.62111" lon="4.78235">
        <ele>264.98</ele>
        <time>2019-03-01T07:46:12Z</time>
      </trkpt>
      <trkpt lat="45.62113" lon="4.78263">
        <ele>262.1</ele>
        <time>2019-03-01T07:46:28Z</time>
      </trkpt>
      <trkpt lat="45.62116" lon="4.7829">
        <ele>260.17</ele>
        <time>2019-03-01T07:46:45Z</time>
      </trkpt>
      <trkpt lat="45.62117" lon="4.78324">
        <ele>257.77</ele>
        <time>2019-03-01T07:47:04Z</time>
      </trkpt>
      <trkpt lat="45.62114" lon="4.78326">
        <ele>257.77</ele>
        <time>2019-03-01T07:47:15Z</time>
      </trkpt>
      <trkpt lat="45.62115" lon="4.78328">
        <ele>257.77</ele>
        <time>2019-03-01T07:47:28Z</time>
      </trkpt>
      <trkpt lat="45.62126" lon="4.78334">
        <ele>257.29</ele>
        <time>2019-03-01T07:47:39Z</time>
      </trkpt>
      <trkpt lat="45.62139" lon="4.7836">
        <ele>257.77</ele>
        <time>2019-03-01T07:47:57Z</time>
      </trkpt>
      <trkpt lat="45.62139" lon="4.78363">
        <ele>257.29</ele>
        <time>2019-03-01T07:47:59Z</time>
      </trkpt>
      <trkpt lat="45.62135" lon="4.78373">
        <ele>256.33</ele>
        <time>2019-03-01T07:48:05Z</time>
      </trkpt>
      <trkpt lat="45.62119" lon="4.78383">
        <ele>254.41</ele>
        <time>2019-03-01T07:48:17Z</time>
      </trkpt>
      <trkpt lat="45.62104" lon="4.78393">
        <ele>252.96</ele>
        <time>2019-03-01T07:48:33Z</time>
      </trkpt>
      <trkpt lat="45.62089" lon="4.78402">
        <ele>252.48</ele>
        <time>2019-03-01T07:48:46Z</time>
      </trkpt>
      <trkpt lat="45.62078" lon="4.78413">
        <ele>251.04</ele>
        <time>2019-03-01T07:49:01Z</time>
      </trkpt>
      <trkpt lat="45.6208" lon="4.78429">
        <ele>249.6</ele>
        <time>2019-03-01T07:49:14Z</time>
      </trkpt>
      <trkpt lat="45.62088" lon="4.78456">
        <ele>250.08</ele>
        <time>2019-03-01T07:49:30Z</time>
      </trkpt>
      <trkpt lat="45.62098" lon="4.78481">
        <ele>252.96</ele>
        <time>2019-03-01T07:49:48Z</time>
      </trkpt>
      <trkpt lat="45.62104" lon="4.7851">
        <ele>255.37</ele>
        <time>2019-03-01T07:50:05Z</time>
      </trkpt>
      <trkpt lat="45.62103" lon="4.78518">
        <ele>254.89</ele>
        <time>2019-03-01T07:50:10Z</time>
      </trkpt>
      <trkpt lat="45.62089" lon="4.78542">
        <ele>253.93</ele>
        <time>2019-03-01T07:50:27Z</time>
      </trkpt>
      <trkpt lat="45.6209" lon="4.78546">
        <ele>253.93</ele>
        <time>2019-03-01T07:50:30Z</time>
      </trkpt>
      <trkpt lat="45.62092" lon="4.78554">
        <ele>254.41</ele>
        <time>2019-03-01T07:50:34Z</time>
      </trkpt>
      <trkpt lat="45.62099" lon="4.78573">
        <ele>255.37</ele>
        <time>2019-03-01T07:50:46Z</time>
      </trkpt>
      <trkpt lat="45.6211" lon="4.78603">
        <ele>256.81</ele>
        <time>2019-03-01T07:51:03Z</time>
      </trkpt>
      <trkpt lat="45.62124" lon="4.7863">
        <ele>258.25</ele>
        <time>2019-03-01T07:51:21Z</time>
      </trkpt>
      <trkpt lat="45.62131" lon="4.78659">
        <ele>256.33</ele>
        <time>2019-03-01T07:51:38Z</time>
      </trkpt>
      <trkpt lat="45.62134" lon="4.78681">
        <ele>252.96</ele>
        <time>2019-03-01T07:51:52Z</time>
      </trkpt>
      <trkpt lat="45.6213" lon="4.78693">
        <ele>252</ele>
        <time>2019-03-01T07:52:01Z</time>
      </trkpt>
      <trkpt lat="45.6213" lon="4.78716">
        <ele>248.64</ele>
        <time>2019-03-01T07:52:17Z</time>
      </trkpt>
      <trkpt lat="45.62133" lon="4.78724">
        <ele>247.2</ele>
        <time>2019-03-01T07:52:25Z</time>
      </trkpt>
      <trkpt lat="45.62134" lon="4.78728">
        <ele>247.68</ele>
        <time>2019-03-01T07:52:27Z</time>
      </trkpt>
      <trkpt lat="45.62133" lon="4.78767">
        <ele>246.23</ele>
        <time>2019-03-01T07:52:47Z</time>
      </trkpt>
      <trkpt lat="45.62142" lon="4.78802">
        <ele>246.23</ele>
        <time>2019-03-01T07:53:08Z</time>
      </trkpt>
      <trkpt lat="45.62159" lon="4.78836">
        <ele>245.27</ele>
        <time>2019-03-01T07:53:29Z</time>
      </trkpt>
      <trkpt lat="45.62167" lon="4.78868">
        <ele>244.31</ele>
        <time>2019-03-01T07:53:48Z</time>
      </trkpt>
      <trkpt lat="45.62167" lon="4.7887">
        <ele>244.31</ele>
        <time>2019-03-01T07:53:49Z</time>
      </trkpt>
      <trkpt lat="45.62173" lon="4.78876">
        <ele>244.79</ele>
        <time>2019-03-01T07:53:55Z</time>
      </trkpt>
      <trkpt lat="45.62184" lon="4.78874">
        <ele>245.75</ele>
        <time>2019-03-01T07:54:08Z</time>
      </trkpt>
      <trkpt lat="45.62209" lon="4.78878">
        <ele>247.2</ele>
        <time>2019-03-01T07:54:27Z</time>
      </trkpt>
      <trkpt lat="45.62209" lon="4.78885">
        <ele>247.68</ele>
        <time>2019-03-01T07:54:30Z</time>
      </trkpt>
      <trkpt lat="45.6221" lon="4.78894">
        <ele>247.68</ele>
        <time>2019-03-01T07:54:34Z</time>
      </trkpt>
      <trkpt lat="45.62205" lon="4.78922">
        <ele>248.16</ele>
        <time>2019-03-01T07:54:49Z</time>
      </trkpt>
      <trkpt lat="45.62195" lon="4.78949">
        <ele>247.2</ele>
        <time>2019-03-01T07:55:06Z</time>
      </trkpt>
      <trkpt lat="45.62185" lon="4.78978">
        <ele>244.79</ele>
        <time>2019-03-01T07:55:24Z</time>
      </trkpt>
      <trkpt lat="45.62174" lon="4.79001">
        <ele>242.87</ele>
        <time>2019-03-01T07:55:42Z</time>
      </trkpt>
      <trkpt lat="45.62157" lon="4.79026">
        <ele>240.95</ele>
        <time>2019-03-01T07:56:01Z</time>
      </trkpt>
      <trkpt lat="45.62151" lon="4.79055">
        <ele>239.02</ele>
        <time>2019-03-01T07:56:19Z</time>
      </trkpt>
      <trkpt lat="45.62145" lon="4.79078">
        <ele>237.58</ele>
        <time>2019-03-01T07:56:35Z</time>
      </trkpt>
      <trkpt lat="45.62142" lon="4.79113">
        <ele>236.14</ele>
        <time>2019-03-01T07:56:52Z</time>
      </trkpt>
      <trkpt lat="45.62146" lon="4.79151">
        <ele>235.66</ele>
        <time>2019-03-01T07:57:12Z</time>
      </trkpt>
      <trkpt lat="45.62149" lon="4.79184">
        <ele>235.18</ele>
        <time>2019-03-01T07:57:30Z</time>
      </trkpt>
      <trkpt lat="45.62146" lon="4.79204">
        <ele>234.7</ele>
        <time>2019-03-01T07:57:44Z</time>
      </trkpt>
      <trkpt lat="45.62149" lon="4.7922">
        <ele>234.22</ele>
        <time>2019-03-01T07:57:53Z</time>
      </trkpt>
      <trkpt lat="45.62151" lon="4.79245">
        <ele>234.22</ele>
        <time>2019-03-01T07:58:06Z</time>
      </trkpt>
      <trkpt lat="45.6215" lon="4.79263">
        <ele>233.26</ele>
        <time>2019-03-01T07:58:17Z</time>
      </trkpt>
      <trkpt lat="45.6215" lon="4.79292">
        <ele>233.26</ele>
        <time>2019-03-01T07:58:34Z</time>
      </trkpt>
      <trkpt lat="45.62139" lon="4.79318">
        <ele>232.3</ele>
        <time>2019-03-01T07:58:50Z</time>
      </trkpt>
      <trkpt lat="45.62132" lon="4.79331">
        <ele>233.74</ele>
        <time>2019-03-01T07:59:02Z</time>
      </trkpt>
      <trkpt lat="45.6212" lon="4.79357">
        <ele>235.18</ele>
        <time>2019-03-01T07:59:20Z</time>
      </trkpt>
      <trkpt lat="45.62113" lon="4.79379">
        <ele>235.18</ele>
        <time>2019-03-01T07:59:34Z</time>
      </trkpt>
      <trkpt lat="45.62108" lon="4.79401">
        <ele>235.66</ele>
        <time>2019-03-01T07:59:48Z</time>
      </trkpt>
      <trkpt lat="45.62098" lon="4.79429">
        <ele>235.66</ele>
        <time>2019-03-01T08:00:03Z</time>
      </trkpt>
      <trkpt lat="45.62091" lon="4.79455">
        <ele>236.14</ele>
        <time>2019-03-01T08:00:19Z</time>
      </trkpt>
      <trkpt lat="45.62079" lon="4.79482">
        <ele>235.66</ele>
        <time>2019-03-01T08:00:33Z</time>
      </trkpt>
      <trkpt lat="45.62073" lon="4.79501">
        <ele>235.18</ele>
        <time>2019-03-01T08:00:46Z</time>
      </trkpt>
      <trkpt lat="45.62067" lon="4.79524">
        <ele>235.18</ele>
        <time>2019-03-01T08:01:00Z</time>
      </trkpt>
      <trkpt lat="45.62058" lon="4.79552">
        <ele>234.7</ele>
        <time>2019-03-01T08:01:16Z</time>
      </trkpt>
      <trkpt lat="45.62041" lon="4.79571">
        <ele>235.18</ele>
        <time>2019-03-01T08:01:34Z</time>
      </trkpt>
      <trkpt lat="45.62031" lon="4.7958">
        <ele>235.18</ele>
        <time>2019-03-01T08:01:46Z</time>
      </trkpt>
      <trkpt lat="45.62014" lon="4.79595">
        <ele>235.66</ele>
        <time>2019-03-01T08:02:02Z</time>
      </trkpt>
      <trkpt lat="45.62005" lon="4.79612">
        <ele>236.14</ele>
        <time>2019-03-01T08:02:16Z</time>
      </trkpt>
      <trkpt lat="45.62002" lon="4.79626">
        <ele>236.14</ele>
        <time>2019-03-01T08:02:24Z</time>
      </trkpt>
      <trkpt lat="45.61997" lon="4.79645">
        <ele>236.62</ele>
        <time>2019-03-01T08:02:36Z</time>
      </trkpt>
      <trkpt lat="45.61994" lon="4.79646">
        <ele>236.62</ele>
        <time>2019-03-01T08:02:38Z</time>
      </trkpt>
      <trkpt lat="45.61993" lon="4.79646">
        <ele>236.14</ele>
        <time>2019-03-01T08:02:39Z</time>
      </trkpt>
      <trkpt lat="45.61991" lon="4.79646">
        <ele>236.62</ele>
        <time>2019-03-01T08:02:40Z</time>
      </trkpt>
      <trkpt lat="45.61987" lon="4.79647">
        <ele>236.62</ele>
        <time>2019-03-01T08:02:43Z</time>
      </trkpt>
      <trkpt lat="45.61972" lon="4.79642">
        <ele>236.62</ele>
        <time>2019-03-01T08:02:54Z</time>
      </trkpt>
      <trkpt lat="45.61961" lon="4.79639">
        <ele>236.14</ele>
        <time>2019-03-01T08:03:03Z</time>
      </trkpt>
      <trkpt lat="45.61947" lon="4.79636">
        <ele>236.62</ele>
        <time>2019-03-01T08:03:15Z</time>
      </trkpt>
      <trkpt lat="45.61921" lon="4.79628">
        <ele>236.62</ele>
        <time>2019-03-01T08:03:33Z</time>
      </trkpt>
      <trkpt lat="45.61906" lon="4.79621">
        <ele>237.1</ele>
        <time>2019-03-01T08:03:46Z</time>
      </trkpt>
      <trkpt lat="45.61882" lon="4.79608">
        <ele>236.62</ele>
        <time>2019-03-01T08:04:08Z</time>
      </trkpt>
      <trkpt lat="45.6185" lon="4.79597">
        <ele>236.14</ele>
        <time>2019-03-01T08:04:29Z</time>
      </trkpt>
      <trkpt lat="45.61825" lon="4.79585">
        <ele>237.58</ele>
        <time>2019-03-01T08:04:48Z</time>
      </trkpt>
      <trkpt lat="45.61805" lon="4.79576">
        <ele>237.1</ele>
        <time>2019-03-01T08:05:06Z</time>
      </trkpt>
      <trkpt lat="45.61784" lon="4.79566">
        <ele>237.58</ele>
        <time>2019-03-01T08:05:21Z</time>
      </trkpt>
      <trkpt lat="45.61764" lon="4.79557">
        <ele>237.1</ele>
        <time>2019-03-01T08:05:37Z</time>
      </trkpt>
      <trkpt lat="45.61747" lon="4.79547">
        <ele>236.14</ele>
        <time>2019-03-01T08:05:53Z</time>
      </trkpt>
      <trkpt lat="45.61739" lon="4.79543">
        <ele>236.14</ele>
        <time>2019-03-01T08:05:59Z</time>
      </trkpt>
      <trkpt lat="45.61738" lon="4.79542">
        <ele>236.62</ele>
        <time>2019-03-01T08:06:00Z</time>
      </trkpt>
      <trkpt lat="45.61737" lon="4.7954">
        <ele>235.66</ele>
        <time>2019-03-01T08:06:01Z</time>
      </trkpt>
      <trkpt lat="45.61736" lon="4.79539">
        <ele>236.62</ele>
        <time>2019-03-01T08:06:02Z</time>
      </trkpt>
      <trkpt lat="45.61734" lon="4.79538">
        <ele>236.14</ele>
        <time>2019-03-01T08:06:03Z</time>
      </trkpt>
      <trkpt lat="45.61733" lon="4.79537">
        <ele>235.66</ele>
        <time>2019-03-01T08:06:04Z</time>
      </trkpt>
      <trkpt lat="45.6172" lon="4.7953">
        <ele>235.66</ele>
        <time>2019-03-01T08:06:16Z</time>
      </trkpt>
      <trkpt lat="45.61719" lon="4.79529">
        <ele>235.66</ele>
        <time>2019-03-01T08:06:17Z</time>
      </trkpt>
      <trkpt lat="45.61718" lon="4.79528">
        <ele>235.66</ele>
        <time>2019-03-01T08:06:18Z</time>
      </trkpt>
      <trkpt lat="45.61716" lon="4.79528">
        <ele>235.66</ele>
        <time>2019-03-01T08:06:19Z</time>
      </trkpt>
      <trkpt lat="45.61715" lon="4.79527">
        <ele>235.66</ele>
        <time>2019-03-01T08:06:20Z</time>
      </trkpt>
      <trkpt lat="45.61713" lon="4.79526">
        <ele>235.66</ele>
        <time>2019-03-01T08:06:21Z</time>
      </trkpt>
      <trkpt lat="45.61691" lon="4.79505">
        <ele>236.62</ele>
        <time>2019-03-01T08:06:37Z</time>
      </trkpt>
      <trkpt lat="45.61678" lon="4.79483">
        <ele>235.66</ele>
        <time>2019-03-01T08:06:53Z</time>
      </trkpt>
      <trkpt lat="45.61661" lon="4.79461">
        <ele>235.18</ele>
        <time>2019-03-01T08:07:09Z</time>
      </trkpt>
      <trkpt lat="45.6164" lon="4.7943">
        <ele>234.22</ele>
        <time>2019-03-01T08:07:30Z</time>
      </trkpt>
      <trkpt lat="45.61621" lon="4.79403">
        <ele>234.22</ele>
        <time>2019-03-01T08:07:49Z</time>
      </trkpt>
      <trkpt lat="45.61598" lon="4.79375">
        <ele>234.22</ele>
        <time>2019-03-01T08:08:11Z</time>
      </trkpt>
      <trkpt lat="45.61578" lon="4.79356">
        <ele>233.74</ele>
        <time>2019-03-01T08:08:27Z</time>
      </trkpt>
      <trkpt lat="45.61557" lon="4.79343">
        <ele>232.78</ele>
        <time>2019-03-01T08:08:43Z</time>
      </trkpt>
      <trkpt lat="45.61548" lon="4.79334">
        <ele>232.3</ele>
        <time>2019-03-01T08:08:54Z</time>
      </trkpt>
      <trkpt lat="45.61547" lon="4.79333">
        <ele>232.3</ele>
        <time>2019-03-01T08:08:55Z</time>
      </trkpt>
      <trkpt lat="45.61528" lon="4.79324">
        <ele>231.81</ele>
        <time>2019-03-01T08:09:09Z</time>
      </trkpt>
      <trkpt lat="45.61506" lon="4.79307">
        <ele>230.85</ele>
        <time>2019-03-01T08:09:26Z</time>
      </trkpt>
      <trkpt lat="45.61489" lon="4.79283">
        <ele>231.33</ele>
        <time>2019-03-01T08:09:43Z</time>
      </trkpt>
      <trkpt lat="45.61488" lon="4.79282">
        <ele>231.33</ele>
        <time>2019-03-01T08:09:44Z</time>
      </trkpt>
      <trkpt lat="45.61486" lon="4.7928">
        <ele>230.85</ele>
        <time>2019-03-01T08:09:45Z</time>
      </trkpt>
      <trkpt lat="45.61464" lon="4.79256">
        <ele>231.33</ele>
        <time>2019-03-01T08:10:03Z</time>
      </trkpt>
      <trkpt lat="45.6145" lon="4.79229">
        <ele>230.85</ele>
        <time>2019-03-01T08:10:19Z</time>
      </trkpt>
      <trkpt lat="45.6144" lon="4.79212">
        <ele>230.37</ele>
        <time>2019-03-01T08:10:33Z</time>
      </trkpt>
      <trkpt lat="45.61422" lon="4.79194">
        <ele>228.93</ele>
        <time>2019-03-01T08:10:49Z</time>
      </trkpt>
      <trkpt lat="45.61415" lon="4.79211">
        <ele>229.41</ele>
        <time>2019-03-01T08:11:04Z</time>
      </trkpt>
      <trkpt lat="45.61413" lon="4.79216">
        <ele>228.93</ele>
        <time>2019-03-01T08:11:08Z</time>
      </trkpt>
      <trkpt lat="45.61396" lon="4.7924">
        <ele>228.93</ele>
        <time>2019-03-01T08:11:25Z</time>
      </trkpt>
      <trkpt lat="45.61382" lon="4.79257">
        <ele>226.53</ele>
        <time>2019-03-01T08:11:40Z</time>
      </trkpt>
      <trkpt lat="45.61375" lon="4.79268">
        <ele>223.16</ele>
        <time>2019-03-01T08:11:51Z</time>
      </trkpt>
      <trkpt lat="45.61372" lon="4.79282">
        <ele>219.8</ele>
        <time>2019-03-01T08:12:02Z</time>
      </trkpt>
      <trkpt lat="45.61366" lon="4.79291">
        <ele>217.88</ele>
        <time>2019-03-01T08:12:11Z</time>
      </trkpt>
      <trkpt lat="45.61358" lon="4.79308">
        <ele>215.47</ele>
        <time>2019-03-01T08:12:25Z</time>
      </trkpt>
      <trkpt lat="45.61352" lon="4.79322">
        <ele>213.07</ele>
        <time>2019-03-01T08:12:36Z</time>
      </trkpt>
      <trkpt lat="45.61339" lon="4.79349">
        <ele>209.7</ele>
        <time>2019-03-01T08:12:53Z</time>
      </trkpt>
      <trkpt lat="45.61328" lon="4.79369">
        <ele>206.82</ele>
        <time>2019-03-01T08:13:08Z</time>
      </trkpt>
      <trkpt lat="45.61322" lon="4.79386">
        <ele>203.46</ele>
        <time>2019-03-01T08:13:21Z</time>
      </trkpt>
      <trkpt lat="45.61317" lon="4.79399">
        <ele>201.05</ele>
        <time>2019-03-01T08:13:32Z</time>
      </trkpt>
      <trkpt lat="45.61316" lon="4.79397">
        <ele>201.53</ele>
        <time>2019-03-01T08:14:55Z</time>
      </trkpt>
      <trkpt lat="45.61311" lon="4.79411">
        <ele>198.17</ele>
        <time>2019-03-01T08:15:09Z</time>
      </trkpt>
      <trkpt lat="45.61311" lon="4.79412">
        <ele>198.17</ele>
        <time>2019-03-01T08:15:10Z</time>
      </trkpt>
      <trkpt lat="45.61309" lon="4.79418">
        <ele>197.21</ele>
        <time>2019-03-01T08:15:15Z</time>
      </trkpt>
      <trkpt lat="45.61303" lon="4.79433">
        <ele>193.84</ele>
        <time>2019-03-01T08:15:30Z</time>
      </trkpt>
      <trkpt lat="45.61303" lon="4.79444">
        <ele>192.4</ele>
        <time>2019-03-01T08:15:39Z</time>
      </trkpt>
      <trkpt lat="45.61301" lon="4.79454">
        <ele>192.4</ele>
        <time>2019-03-01T08:15:45Z</time>
      </trkpt>
      <trkpt lat="45.61293" lon="4.79463">
        <ele>189.52</ele>
        <time>2019-03-01T08:15:54Z</time>
      </trkpt>
      <trkpt lat="45.61288" lon="4.79466">
        <ele>187.59</ele>
        <time>2019-03-01T08:15:58Z</time>
      </trkpt>
      <trkpt lat="45.61286" lon="4.79474">
        <ele>186.63</ele>
        <time>2019-03-01T08:16:04Z</time>
      </trkpt>
      <trkpt lat="45.61284" lon="4.79478">
        <ele>186.15</ele>
        <time>2019-03-01T08:16:07Z</time>
      </trkpt>
      <trkpt lat="45.61279" lon="4.79479">
        <ele>185.67</ele>
        <time>2019-03-01T08:16:11Z</time>
      </trkpt>
      <trkpt lat="45.61261" lon="4.79467">
        <ele>186.15</ele>
        <time>2019-03-01T08:16:27Z</time>
      </trkpt>
      <trkpt lat="45.6124" lon="4.79446">
        <ele>185.67</ele>
        <time>2019-03-01T08:16:46Z</time>
      </trkpt>
      <trkpt lat="45.6122" lon="4.7943">
        <ele>185.67</ele>
        <time>2019-03-01T08:17:08Z</time>
      </trkpt>
      <trkpt lat="45.61196" lon="4.79417">
        <ele>185.67</ele>
        <time>2019-03-01T08:17:29Z</time>
      </trkpt>
      <trkpt lat="45.61195" lon="4.79421">
        <ele>183.75</ele>
        <time>2019-03-01T08:17:33Z</time>
      </trkpt>
      <trkpt lat="45.61181" lon="4.79435">
        <ele>183.27</ele>
        <time>2019-03-01T08:17:47Z</time>
      </trkpt>
      <trkpt lat="45.61164" lon="4.79449">
        <ele>181.35</ele>
        <time>2019-03-01T08:18:01Z</time>
      </trkpt>
      <trkpt lat="45.61157" lon="4.79452">
        <ele>180.38</ele>
        <time>2019-03-01T08:18:09Z</time>
      </trkpt>
      <trkpt lat="45.6114" lon="4.79461">
        <ele>179.42</ele>
        <time>2019-03-01T08:18:25Z</time>
      </trkpt>
      <trkpt lat="45.61119" lon="4.7947">
        <ele>178.46</ele>
        <time>2019-03-01T08:18:42Z</time>
      </trkpt>
      <trkpt lat="45.61113" lon="4.79472">
        <ele>177.98</ele>
        <time>2019-03-01T08:18:48Z</time>
      </trkpt>
      <trkpt lat="45.61113" lon="4.79474">
        <ele>177.5</ele>
        <time>2019-03-01T08:18:51Z</time>
      </trkpt>
      <trkpt lat="45.61124" lon="4.79481">
        <ele>177.02</ele>
        <time>2019-03-01T08:19:05Z</time>
      </trkpt>
      <trkpt lat="45.61126" lon="4.79483">
        <ele>177.02</ele>
        <time>2019-03-01T08:19:09Z</time>
      </trkpt>
      <trkpt lat="45.61137" lon="4.79513">
        <ele>177.02</ele>
        <time>2019-03-01T08:19:24Z</time>
      </trkpt>
      <trkpt lat="45.61137" lon="4.79542">
        <ele>175.58</ele>
        <time>2019-03-01T08:19:38Z</time>
      </trkpt>
      <trkpt lat="45.61136" lon="4.79554">
        <ele>175.58</ele>
        <time>2019-03-01T08:19:47Z</time>
      </trkpt>
      <trkpt lat="45.61128" lon="4.79577">
        <ele>175.1</ele>
        <time>2019-03-01T08:20:02Z</time>
      </trkpt>
      <trkpt lat="45.61131" lon="4.79579">
        <ele>175.1</ele>
        <time>2019-03-01T08:20:05Z</time>
      </trkpt>
      <trkpt lat="45.61138" lon="4.79581">
        <ele>175.58</ele>
        <time>2019-03-01T08:20:09Z</time>
      </trkpt>
      <trkpt lat="45.61144" lon="4.796">
        <ele>175.1</ele>
        <time>2019-03-01T08:20:26Z</time>
      </trkpt>
      <trkpt lat="45.61148" lon="4.79615">
        <ele>175.1</ele>
        <time>2019-03-01T08:20:38Z</time>
      </trkpt>
      <trkpt lat="45.61156" lon="4.79631">
        <ele>175.58</ele>
        <time>2019-03-01T08:20:53Z</time>
      </trkpt>
      <trkpt lat="45.61173" lon="4.79656">
        <ele>176.06</ele>
        <time>2019-03-01T08:21:09Z</time>
      </trkpt>
      <trkpt lat="45.6118" lon="4.79664">
        <ele>175.58</ele>
        <time>2019-03-01T08:21:18Z</time>
      </trkpt>
      <trkpt lat="45.61183" lon="4.79673">
        <ele>176.06</ele>
        <time>2019-03-01T08:21:23Z</time>
      </trkpt>
      <trkpt lat="45.6119" lon="4.79686">
        <ele>176.06</ele>
        <time>2019-03-01T08:21:30Z</time>
      </trkpt>
      <trkpt lat="45.61204" lon="4.7971">
        <ele>176.54</ele>
        <time>2019-03-01T08:21:47Z</time>
      </trkpt>
      <trkpt lat="45.61216" lon="4.79727">
        <ele>176.06</ele>
        <time>2019-03-01T08:22:02Z</time>
      </trkpt>
      <trkpt lat="45.6123" lon="4.79749">
        <ele>176.06</ele>
        <time>2019-03-01T08:22:19Z</time>
      </trkpt>
      <trkpt lat="45.61246" lon="4.79769">
        <ele>176.06</ele>
        <time>2019-03-01T08:22:37Z</time>
      </trkpt>
      <trkpt lat="45.61266" lon="4.79791">
        <ele>175.58</ele>
        <time>2019-03-01T08:22:55Z</time>
      </trkpt>
      <trkpt lat="45.61264" lon="4.79809">
        <ele>174.62</ele>
        <time>2019-03-01T08:23:09Z</time>
      </trkpt>
      <trkpt lat="45.61282" lon="4.79818">
        <ele>175.1</ele>
        <time>2019-03-01T08:23:24Z</time>
      </trkpt>
      <trkpt lat="45.61287" lon="4.79821">
        <ele>174.62</ele>
        <time>2019-03-01T08:23:30Z</time>
      </trkpt>
      <trkpt lat="45.61306" lon="4.79833">
        <ele>175.1</ele>
        <time>2019-03-01T08:23:47Z</time>
      </trkpt>
      <trkpt lat="45.61326" lon="4.79841">
        <ele>175.1</ele>
        <time>2019-03-01T08:24:03Z</time>
      </trkpt>
      <trkpt lat="45.61337" lon="4.79846">
        <ele>175.58</ele>
        <time>2019-03-01T08:24:09Z</time>
      </trkpt>
      <trkpt lat="45.61338" lon="4.79847">
        <ele>176.06</ele>
        <time>2019-03-01T08:24:10Z</time>
      </trkpt>
      <trkpt lat="45.61337" lon="4.79849">
        <ele>176.06</ele>
        <time>2019-03-01T08:24:11Z</time>
      </trkpt>
      <trkpt lat="45.61335" lon="4.79852">
        <ele>175.1</ele>
        <time>2019-03-01T08:24:12Z</time>
      </trkpt>
      <trkpt lat="45.61333" lon="4.79853">
        <ele>175.1</ele>
        <time>2019-03-01T08:24:13Z</time>
      </trkpt>
      <trkpt lat="45.61331" lon="4.79854">
        <ele>175.58</ele>
        <time>2019-03-01T08:24:14Z</time>
      </trkpt>
      <trkpt lat="45.61329" lon="4.79854">
        <ele>175.1</ele>
        <time>2019-03-01T08:24:15Z</time>
      </trkpt>
      <trkpt lat="45.61322" lon="4.79857">
        <ele>175.1</ele>
        <time>2019-03-01T08:24:21Z</time>
      </trkpt>
      <trkpt lat="45.61321" lon="4.79859">
        <ele>174.14</ele>
        <time>2019-03-01T08:24:22Z</time>
      </trkpt>
      <trkpt lat="45.61321" lon="4.79861">
        <ele>174.14</ele>
        <time>2019-03-01T08:24:23Z</time>
      </trkpt>
      <trkpt lat="45.6132" lon="4.79863">
        <ele>174.62</ele>
        <time>2019-03-01T08:24:24Z</time>
      </trkpt>
      <trkpt lat="45.61319" lon="4.79866">
        <ele>174.14</ele>
        <time>2019-03-01T08:24:25Z</time>
      </trkpt>
      <trkpt lat="45.61317" lon="4.79867">
        <ele>173.66</ele>
        <time>2019-03-01T08:24:26Z</time>
      </trkpt>
      <trkpt lat="45.61316" lon="4.79869">
        <ele>173.66</ele>
        <time>2019-03-01T08:24:27Z</time>
      </trkpt>
      <trkpt lat="45.61316" lon="4.79871">
        <ele>173.17</ele>
        <time>2019-03-01T08:24:28Z</time>
      </trkpt>
      <trkpt lat="45.61315" lon="4.79872">
        <ele>173.17</ele>
        <time>2019-03-01T08:24:29Z</time>
      </trkpt>
      <trkpt lat="45.61306" lon="4.79895">
        <ele>173.17</ele>
        <time>2019-03-01T08:24:45Z</time>
      </trkpt>
      <trkpt lat="45.61298" lon="4.79919">
        <ele>171.73</ele>
        <time>2019-03-01T08:25:01Z</time>
      </trkpt>
      <trkpt lat="45.61299" lon="4.79921">
        <ele>171.25</ele>
        <time>2019-03-01T08:25:02Z</time>
      </trkpt>
      <trkpt lat="45.61299" lon="4.79924">
        <ele>171.73</ele>
        <time>2019-03-01T08:25:04Z</time>
      </trkpt>
      <trkpt lat="45.61298" lon="4.79926">
        <ele>171.25</ele>
        <time>2019-03-01T08:25:05Z</time>
      </trkpt>
      <trkpt lat="45.61303" lon="4.79948">
        <ele>169.33</ele>
        <time>2019-03-01T08:25:20Z</time>
      </trkpt>
      <trkpt lat="45.61308" lon="4.79962">
        <ele>168.37</ele>
        <time>2019-03-01T08:25:29Z</time>
      </trkpt>
      <trkpt lat="45.61309" lon="4.79963">
        <ele>168.37</ele>
        <time>2019-03-01T08:25:30Z</time>
      </trkpt>
      <trkpt lat="45.61318" lon="4.79977">
        <ele>167.41</ele>
        <time>2019-03-01T08:25:41Z</time>
      </trkpt>
      <trkpt lat="45.61319" lon="4.79984">
        <ele>167.41</ele>
        <time>2019-03-01T08:25:45Z</time>
      </trkpt>
      <trkpt lat="45.61319" lon="4.80005">
        <ele>166.45</ele>
        <time>2019-03-01T08:25:59Z</time>
      </trkpt>
      <trkpt lat="45.61313" lon="4.80007">
        <ele>165.48</ele>
        <time>2019-03-01T08:26:02Z</time>
      </trkpt>
      <trkpt lat="45.61312" lon="4.80007">
        <ele>165.96</ele>
        <time>2019-03-01T08:26:03Z</time>
      </trkpt>
      <trkpt lat="45.6129" lon="4.79996">
        <ele>165</ele>
        <time>2019-03-01T08:26:19Z</time>
      </trkpt>
      <trkpt lat="45.61269" lon="4.79987">
        <ele>164.52</ele>
        <time>2019-03-01T08:26:36Z</time>
      </trkpt>
      <trkpt lat="45.61247" lon="4.79967">
        <ele>164.04</ele>
        <time>2019-03-01T08:26:53Z</time>
      </trkpt>
      <trkpt lat="45.61231" lon="4.79957">
        <ele>164.04</ele>
        <time>2019-03-01T08:27:08Z</time>
      </trkpt>
      <trkpt lat="45.61215" lon="4.79945">
        <ele>164.04</ele>
        <time>2019-03-01T08:27:21Z</time>
      </trkpt>
      <trkpt lat="45.61199" lon="4.79933">
        <ele>164.04</ele>
        <time>2019-03-01T08:27:36Z</time>
      </trkpt>
      <trkpt lat="45.61176" lon="4.79921">
        <ele>164.04</ele>
        <time>2019-03-01T08:27:53Z</time>
      </trkpt>
      <trkpt lat="45.61163" lon="4.79916">
        <ele>163.56</ele>
        <time>2019-03-01T08:28:03Z</time>
      </trkpt>
      <trkpt lat="45.61162" lon="4.79917">
        <ele>164.52</ele>
        <time>2019-03-01T08:28:04Z</time>
      </trkpt>
      <trkpt lat="45.61162" lon="4.79919">
        <ele>163.56</ele>
        <time>2019-03-01T08:28:05Z</time>
      </trkpt>
      <trkpt lat="45.61161" lon="4.79921">
        <ele>163.08</ele>
        <time>2019-03-01T08:28:06Z</time>
      </trkpt>
      <trkpt lat="45.61161" lon="4.79922">
        <ele>163.08</ele>
        <time>2019-03-01T08:28:07Z</time>
      </trkpt>
      <trkpt lat="45.61161" lon="4.79923">
        <ele>163.56</ele>
        <time>2019-03-01T08:28:08Z</time>
      </trkpt>
      <trkpt lat="45.6115" lon="4.79939">
        <ele>163.08</ele>
        <time>2019-03-01T08:28:22Z</time>
      </trkpt>
      <trkpt lat="45.61145" lon="4.79939">
        <ele>163.08</ele>
        <time>2019-03-01T08:28:27Z</time>
      </trkpt>
      <trkpt lat="45.61142" lon="4.7994">
        <ele>163.08</ele>
        <time>2019-03-01T08:28:28Z</time>
      </trkpt>
      <trkpt lat="45.61117" lon="4.79943">
        <ele>162.12</ele>
        <time>2019-03-01T08:28:45Z</time>
      </trkpt>
      <trkpt lat="45.61096" lon="4.79935">
        <ele>162.12</ele>
        <time>2019-03-01T08:29:01Z</time>
      </trkpt>
      <trkpt lat="45.6108" lon="4.79931">
        <ele>162.6</ele>
        <time>2019-03-01T08:29:16Z</time>
      </trkpt>
      <trkpt lat="45.61057" lon="4.79928">
        <ele>163.56</ele>
        <time>2019-03-01T08:29:31Z</time>
      </trkpt>
      <trkpt lat="45.61037" lon="4.79936">
        <ele>162.6</ele>
        <time>2019-03-01T08:29:45Z</time>
      </trkpt>
      <trkpt lat="45.61021" lon="4.7994">
        <ele>162.6</ele>
        <time>2019-03-01T08:29:59Z</time>
      </trkpt>
      <trkpt lat="45.61003" lon="4.79934">
        <ele>162.6</ele>
        <time>2019-03-01T08:30:12Z</time>
      </trkpt>
      <trkpt lat="45.6098" lon="4.79922">
        <ele>162.6</ele>
        <time>2019-03-01T08:30:30Z</time>
      </trkpt>
      <trkpt lat="45.60959" lon="4.79915">
        <ele>163.08</ele>
        <time>2019-03-01T08:30:44Z</time>
      </trkpt>
      <trkpt lat="45.60934" lon="4.79907">
        <ele>163.08</ele>
        <time>2019-03-01T08:31:05Z</time>
      </trkpt>
      <trkpt lat="45.60916" lon="4.79896">
        <ele>163.56</ele>
        <time>2019-03-01T08:31:20Z</time>
      </trkpt>
      <trkpt lat="45.60902" lon="4.79889">
        <ele>162.6</ele>
        <time>2019-03-01T08:31:31Z</time>
      </trkpt>
      <trkpt lat="45.60901" lon="4.79888">
        <ele>162.6</ele>
        <time>2019-03-01T08:31:32Z</time>
      </trkpt>
      <trkpt lat="45.609" lon="4.79886">
        <ele>162.6</ele>
        <time>2019-03-01T08:31:33Z</time>
      </trkpt>
      <trkpt lat="45.60898" lon="4.79885">
        <ele>162.6</ele>
        <time>2019-03-01T08:31:34Z</time>
      </trkpt>
      <trkpt lat="45.60897" lon="4.79884">
        <ele>163.08</ele>
        <time>2019-03-01T08:31:35Z</time>
      </trkpt>
      <trkpt lat="45.60885" lon="4.79877">
        <ele>162.6</ele>
        <time>2019-03-01T08:31:47Z</time>
      </trkpt>
      <trkpt lat="45.60868" lon="4.79867">
        <ele>162.6</ele>
        <time>2019-03-01T08:32:01Z</time>
      </trkpt>
      <trkpt lat="45.60847" lon="4.79859">
        <ele>163.08</ele>
        <time>2019-03-01T08:32:16Z</time>
      </trkpt>
      <trkpt lat="45.60829" lon="4.79852">
        <ele>163.08</ele>
        <time>2019-03-01T08:32:31Z</time>
      </trkpt>
      <trkpt lat="45.60807" lon="4.7984">
        <ele>163.08</ele>
        <time>2019-03-01T08:32:48Z</time>
      </trkpt>
      <trkpt lat="45.60786" lon="4.79828">
        <ele>163.08</ele>
        <time>2019-03-01T08:33:04Z</time>
      </trkpt>
      <trkpt lat="45.60768" lon="4.79816">
        <ele>164.52</ele>
        <time>2019-03-01T08:33:18Z</time>
      </trkpt>
      <trkpt lat="45.6075" lon="4.79802">
        <ele>163.56</ele>
        <time>2019-03-01T08:33:33Z</time>
      </trkpt>
      <trkpt lat="45.60749" lon="4.79801">
        <ele>163.56</ele>
        <time>2019-03-01T08:33:34Z</time>
      </trkpt>
      <trkpt lat="45.60731" lon="4.79788">
        <ele>164.04</ele>
        <time>2019-03-01T08:33:49Z</time>
      </trkpt>
      <trkpt lat="45.60713" lon="4.79777">
        <ele>163.56</ele>
        <time>2019-03-01T08:34:04Z</time>
      </trkpt>
      <trkpt lat="45.60697" lon="4.79756">
        <ele>163.08</ele>
        <time>2019-03-01T08:34:19Z</time>
      </trkpt>
      <trkpt lat="45.6068" lon="4.79737">
        <ele>163.56</ele>
        <time>2019-03-01T08:34:35Z</time>
      </trkpt>
      <trkpt lat="45.60674" lon="4.7973">
        <ele>163.08</ele>
        <time>2019-03-01T08:34:42Z</time>
      </trkpt>
      <trkpt lat="45.60673" lon="4.79728">
        <ele>163.08</ele>
        <time>2019-03-01T08:34:43Z</time>
      </trkpt>
      <trkpt lat="45.60659" lon="4.79708">
        <ele>163.08</ele>
        <time>2019-03-01T08:34:58Z</time>
      </trkpt>
      <trkpt lat="45.60644" lon="4.7969">
        <ele>162.12</ele>
        <time>2019-03-01T08:35:13Z</time>
      </trkpt>
      <trkpt lat="45.60635" lon="4.79676">
        <ele>162.6</ele>
        <time>2019-03-01T08:35:27Z</time>
      </trkpt>
      <trkpt lat="45.60616" lon="4.79666">
        <ele>162.12</ele>
        <time>2019-03-01T08:35:39Z</time>
      </trkpt>
      <trkpt lat="45.60614" lon="4.79666">
        <ele>163.08</ele>
        <time>2019-03-01T08:35:40Z</time>
      </trkpt>
      <trkpt lat="45.606" lon="4.79667">
        <ele>162.12</ele>
        <time>2019-03-01T08:35:54Z</time>
      </trkpt>
      <trkpt lat="45.60595" lon="4.79666">
        <ele>162.12</ele>
        <time>2019-03-01T08:35:59Z</time>
      </trkpt>
      <trkpt lat="45.60593" lon="4.79665">
        <ele>162.12</ele>
        <time>2019-03-01T08:36:01Z</time>
      </trkpt>
      <trkpt lat="45.60584" lon="4.79656">
        <ele>161.64</ele>
        <time>2019-03-01T08:36:08Z</time>
      </trkpt>
      <trkpt lat="45.60583" lon="4.79649">
        <ele>162.12</ele>
        <time>2019-03-01T08:36:11Z</time>
      </trkpt>
      <trkpt lat="45.60583" lon="4.79646">
        <ele>162.12</ele>
        <time>2019-03-01T08:36:12Z</time>
      </trkpt>
      <trkpt lat="45.60582" lon="4.79643">
        <ele>161.64</ele>
        <time>2019-03-01T08:36:13Z</time>
      </trkpt>
      <trkpt lat="45.6058" lon="4.79607">
        <ele>164.04</ele>
        <time>2019-03-01T08:36:30Z</time>
      </trkpt>
      <trkpt lat="45.60581" lon="4.79576">
        <ele>166.93</ele>
        <time>2019-03-01T08:36:44Z</time>
      </trkpt>
      <trkpt lat="45.60576" lon="4.79545">
        <ele>166.93</ele>
        <time>2019-03-01T08:37:03Z</time>
      </trkpt>
      <trkpt lat="45.60573" lon="4.79534">
        <ele>167.41</ele>
        <time>2019-03-01T08:37:10Z</time>
      </trkpt>
      <trkpt lat="45.6057" lon="4.79502">
        <ele>167.41</ele>
        <time>2019-03-01T08:37:24Z</time>
      </trkpt>
      <trkpt lat="45.60571" lon="4.795">
        <ele>167.89</ele>
        <time>2019-03-01T08:37:25Z</time>
      </trkpt>
      <trkpt lat="45.60571" lon="4.79498">
        <ele>167.41</ele>
        <time>2019-03-01T08:37:26Z</time>
      </trkpt>
      <trkpt lat="45.60575" lon="4.79484">
        <ele>168.37</ele>
        <time>2019-03-01T08:37:35Z</time>
      </trkpt>
      <trkpt lat="45.60574" lon="4.79479">
        <ele>167.89</ele>
        <time>2019-03-01T08:37:38Z</time>
      </trkpt>
      <trkpt lat="45.60573" lon="4.79477">
        <ele>167.89</ele>
        <time>2019-03-01T08:37:39Z</time>
      </trkpt>
      <trkpt lat="45.60572" lon="4.79475">
        <ele>167.89</ele>
        <time>2019-03-01T08:37:40Z</time>
      </trkpt>
      <trkpt lat="45.60566" lon="4.79462">
        <ele>168.37</ele>
        <time>2019-03-01T08:37:48Z</time>
      </trkpt>
      <trkpt lat="45.60553" lon="4.7944">
        <ele>167.41</ele>
        <time>2019-03-01T08:38:05Z</time>
      </trkpt>
      <trkpt lat="45.60542" lon="4.7942">
        <ele>168.37</ele>
        <time>2019-03-01T08:38:19Z</time>
      </trkpt>
      <trkpt lat="45.60533" lon="4.79401">
        <ele>168.37</ele>
        <time>2019-03-01T08:38:33Z</time>
      </trkpt>
      <trkpt lat="45.60529" lon="4.79394">
        <ele>167.89</ele>
        <time>2019-03-01T08:38:41Z</time>
      </trkpt>
      <trkpt lat="45.60524" lon="4.79393">
        <ele>167.89</ele>
        <time>2019-03-01T08:38:45Z</time>
      </trkpt>
      <trkpt lat="45.60506" lon="4.79364">
        <ele>168.37</ele>
        <time>2019-03-01T08:39:02Z</time>
      </trkpt>
      <trkpt lat="45.60491" lon="4.79336">
        <ele>167.89</ele>
        <time>2019-03-01T08:39:19Z</time>
      </trkpt>
      <trkpt lat="45.60478" lon="4.79311">
        <ele>167.89</ele>
        <time>2019-03-01T08:39:39Z</time>
      </trkpt>
      <trkpt lat="45.60459" lon="4.79285">
        <ele>168.37</ele>
        <time>2019-03-01T08:39:56Z</time>
      </trkpt>
      <trkpt lat="45.60443" lon="4.79265">
        <ele>168.37</ele>
        <time>2019-03-01T08:40:13Z</time>
      </trkpt>
      <trkpt lat="45.60429" lon="4.79244">
        <ele>167.89</ele>
        <time>2019-03-01T08:40:27Z</time>
      </trkpt>
      <trkpt lat="45.6041" lon="4.7922">
        <ele>167.89</ele>
        <time>2019-03-01T08:40:44Z</time>
      </trkpt>
      <trkpt lat="45.60399" lon="4.79208">
        <ele>167.41</ele>
        <time>2019-03-01T08:40:55Z</time>
      </trkpt>
      <trkpt lat="45.60394" lon="4.79204">
        <ele>168.37</ele>
        <time>2019-03-01T08:41:00Z</time>
      </trkpt>
      <trkpt lat="45.60372" lon="4.7918">
        <ele>167.41</ele>
        <time>2019-03-01T08:41:21Z</time>
      </trkpt>
      <trkpt lat="45.60348" lon="4.79153">
        <ele>166.93</ele>
        <time>2019-03-01T08:41:41Z</time>
      </trkpt>
      <trkpt lat="45.60337" lon="4.79128">
        <ele>167.89</ele>
        <time>2019-03-01T08:41:59Z</time>
      </trkpt>
      <trkpt lat="45.60322" lon="4.79098">
        <ele>167.89</ele>
        <time>2019-03-01T08:42:16Z</time>
      </trkpt>
      <trkpt lat="45.60307" lon="4.79062">
        <ele>167.89</ele>
        <time>2019-03-01T08:42:36Z</time>
      </trkpt>
      <trkpt lat="45.60295" lon="4.79034">
        <ele>167.89</ele>
        <time>2019-03-01T08:42:54Z</time>
      </trkpt>
      <trkpt lat="45.6029" lon="4.79002">
        <ele>168.37</ele>
        <time>2019-03-01T08:43:12Z</time>
      </trkpt>
      <trkpt lat="45.60289" lon="4.78993">
        <ele>167.89</ele>
        <time>2019-03-01T08:43:19Z</time>
      </trkpt>
      <trkpt lat="45.60288" lon="4.78973">
        <ele>167.41</ele>
        <time>2019-03-01T08:43:33Z</time>
      </trkpt>
      <trkpt lat="45.60276" lon="4.78945">
        <ele>167.41</ele>
        <time>2019-03-01T08:43:53Z</time>
      </trkpt>
      <trkpt lat="45.6026" lon="4.78911">
        <ele>166.93</ele>
        <time>2019-03-01T08:44:10Z</time>
      </trkpt>
      <trkpt lat="45.60246" lon="4.78876">
        <ele>166.45</ele>
        <time>2019-03-01T08:44:30Z</time>
      </trkpt>
      <trkpt lat="45.60232" lon="4.78841">
        <ele>166.93</ele>
        <time>2019-03-01T08:44:50Z</time>
      </trkpt>
      <trkpt lat="45.6022" lon="4.78808">
        <ele>166.45</ele>
        <time>2019-03-01T08:45:08Z</time>
      </trkpt>
      <trkpt lat="45.60207" lon="4.78783">
        <ele>166.93</ele>
        <time>2019-03-01T08:45:27Z</time>
      </trkpt>
      <trkpt lat="45.60186" lon="4.78754">
        <ele>166.45</ele>
        <time>2019-03-01T08:45:46Z</time>
      </trkpt>
      <trkpt lat="45.60163" lon="4.78733">
        <ele>166.93</ele>
        <time>2019-03-01T08:46:06Z</time>
      </trkpt>
      <trkpt lat="45.60141" lon="4.7871">
        <ele>166.45</ele>
        <time>2019-03-01T08:46:27Z</time>
      </trkpt>
      <trkpt lat="45.60117" lon="4.7869">
        <ele>165.48</ele>
        <time>2019-03-01T08:46:46Z</time>
      </trkpt>
      <trkpt lat="45.60095" lon="4.78671">
        <ele>165.96</ele>
        <time>2019-03-01T08:47:05Z</time>
      </trkpt>
      <trkpt lat="45.60075" lon="4.78653">
        <ele>165.96</ele>
        <time>2019-03-01T08:47:22Z</time>
      </trkpt>
      <trkpt lat="45.60052" lon="4.78635">
        <ele>165.96</ele>
        <time>2019-03-01T08:47:42Z</time>
      </trkpt>
      <trkpt lat="45.60035" lon="4.78613">
        <ele>166.45</ele>
        <time>2019-03-01T08:48:00Z</time>
      </trkpt>
      <trkpt lat="45.60041" lon="4.7859">
        <ele>166.45</ele>
        <time>2019-03-01T08:48:14Z</time>
      </trkpt>
      <trkpt lat="45.60027" lon="4.78573">
        <ele>166.45</ele>
        <time>2019-03-01T08:48:30Z</time>
      </trkpt>
      <trkpt lat="45.60005" lon="4.78549">
        <ele>167.41</ele>
        <time>2019-03-01T08:48:52Z</time>
      </trkpt>
      <trkpt lat="45.59987" lon="4.78523">
        <ele>166.45</ele>
        <time>2019-03-01T08:49:10Z</time>
      </trkpt>
      <trkpt lat="45.59976" lon="4.78507">
        <ele>166.45</ele>
        <time>2019-03-01T08:49:25Z</time>
      </trkpt>
      <trkpt lat="45.59977" lon="4.78502">
        <ele>165.96</ele>
        <time>2019-03-01T08:49:29Z</time>
      </trkpt>
      <trkpt lat="45.59975" lon="4.78497">
        <ele>164.52</ele>
        <time>2019-03-01T08:49:34Z</time>
      </trkpt>
      <trkpt lat="45.59971" lon="4.78486">
        <ele>164.52</ele>
        <time>2019-03-01T08:49:42Z</time>
      </trkpt>
      <trkpt lat="45.59964" lon="4.78468">
        <ele>165</ele>
        <time>2019-03-01T08:49:52Z</time>
      </trkpt>
      <trkpt lat="45.59961" lon="4.78456">
        <ele>165</ele>
        <time>2019-03-01T08:50:00Z</time>
      </trkpt>
      <trkpt lat="45.59959" lon="4.78451">
        <ele>165</ele>
        <time>2019-03-01T08:50:04Z</time>
      </trkpt>
      <trkpt lat="45.59946" lon="4.78422">
        <ele>165.96</ele>
        <time>2019-03-01T08:50:22Z</time>
      </trkpt>
      <trkpt lat="45.59945" lon="4.7842">
        <ele>165.96</ele>
        <time>2019-03-01T08:50:24Z</time>
      </trkpt>
      <trkpt lat="45.59942" lon="4.78414">
        <ele>166.45</ele>
        <time>2019-03-01T08:50:29Z</time>
      </trkpt>
      <trkpt lat="45.5994" lon="4.78411">
        <ele>166.45</ele>
        <time>2019-03-01T08:50:31Z</time>
      </trkpt>
      <trkpt lat="45.59952" lon="4.78393">
        <ele>167.89</ele>
        <time>2019-03-01T08:50:44Z</time>
      </trkpt>
      <trkpt lat="45.59969" lon="4.78368">
        <ele>169.81</ele>
        <time>2019-03-01T08:51:03Z</time>
      </trkpt>
      <trkpt lat="45.59979" lon="4.78354">
        <ele>170.29</ele>
        <time>2019-03-01T08:51:15Z</time>
      </trkpt>
      <trkpt lat="45.59999" lon="4.78336">
        <ele>171.25</ele>
        <time>2019-03-01T08:51:32Z</time>
      </trkpt>
      <trkpt lat="45.6002" lon="4.78316">
        <ele>171.25</ele>
        <time>2019-03-01T08:51:52Z</time>
      </trkpt>
      <trkpt lat="45.60041" lon="4.78296">
        <ele>172.21</ele>
        <time>2019-03-01T08:52:11Z</time>
      </trkpt>
      <trkpt lat="45.60061" lon="4.78285">
        <ele>171.73</ele>
        <time>2019-03-01T08:52:29Z</time>
      </trkpt>
      <trkpt lat="45.60085" lon="4.78263">
        <ele>172.21</ele>
        <time>2019-03-01T08:52:49Z</time>
      </trkpt>
      <trkpt lat="45.60113" lon="4.78242">
        <ele>173.17</ele>
        <time>2019-03-01T08:53:13Z</time>
      </trkpt>
      <trkpt lat="45.60137" lon="4.78228">
        <ele>173.17</ele>
        <time>2019-03-01T08:53:33Z</time>
      </trkpt>
      <trkpt lat="45.6015" lon="4.7822">
        <ele>173.66</ele>
        <time>2019-03-01T08:53:47Z</time>
      </trkpt>
      <trkpt lat="45.60169" lon="4.78212">
        <ele>173.17</ele>
        <time>2019-03-01T08:54:03Z</time>
      </trkpt>
      <trkpt lat="45.60186" lon="4.78202">
        <ele>173.66</ele>
        <time>2019-03-01T08:54:21Z</time>
      </trkpt>
      <trkpt lat="45.60196" lon="4.78175">
        <ele>173.66</ele>
        <time>2019-03-01T08:54:38Z</time>
      </trkpt>
      <trkpt lat="45.60192" lon="4.78143">
        <ele>174.14</ele>
        <time>2019-03-01T08:54:56Z</time>
      </trkpt>
      <trkpt lat="45.60185" lon="4.7811">
        <ele>173.66</ele>
        <time>2019-03-01T08:55:13Z</time>
      </trkpt>
      <trkpt lat="45.60182" lon="4.78076">
        <ele>174.14</ele>
        <time>2019-03-01T08:55:32Z</time>
      </trkpt>
      <trkpt lat="45.60176" lon="4.78054">
        <ele>175.1</ele>
        <time>2019-03-01T08:55:44Z</time>
      </trkpt>
      <trkpt lat="45.60172" lon="4.78047">
        <ele>173.66</ele>
        <time>2019-03-01T08:55:48Z</time>
      </trkpt>
      <trkpt lat="45.6016" lon="4.78022">
        <ele>175.1</ele>
        <time>2019-03-01T08:56:05Z</time>
      </trkpt>
      <trkpt lat="45.60158" lon="4.78013">
        <ele>175.1</ele>
        <time>2019-03-01T08:56:11Z</time>
      </trkpt>
      <trkpt lat="45.60163" lon="4.78">
        <ele>176.06</ele>
        <time>2019-03-01T08:56:24Z</time>
      </trkpt>
      <trkpt lat="45.60165" lon="4.77997">
        <ele>176.06</ele>
        <time>2019-03-01T08:56:27Z</time>
      </trkpt>
      <trkpt lat="45.60176" lon="4.77978">
        <ele>174.62</ele>
        <time>2019-03-01T08:56:40Z</time>
      </trkpt>
      <trkpt lat="45.60186" lon="4.77963">
        <ele>175.58</ele>
        <time>2019-03-01T08:56:48Z</time>
      </trkpt>
      <trkpt lat="45.60196" lon="4.77962">
        <ele>175.58</ele>
        <time>2019-03-01T08:56:55Z</time>
      </trkpt>
      <trkpt lat="45.60203" lon="4.77967">
        <ele>175.1</ele>
        <time>2019-03-01T08:57:01Z</time>
      </trkpt>
      <trkpt lat="45.60215" lon="4.77978">
        <ele>174.14</ele>
        <time>2019-03-01T08:57:10Z</time>
      </trkpt>
      <trkpt lat="45.60219" lon="4.77983">
        <ele>174.14</ele>
        <time>2019-03-01T08:57:14Z</time>
      </trkpt>
      <trkpt lat="45.60221" lon="4.77985">
        <ele>174.62</ele>
        <time>2019-03-01T08:57:16Z</time>
      </trkpt>
      <trkpt lat="45.60241" lon="4.78005">
        <ele>174.14</ele>
        <time>2019-03-01T08:57:32Z</time>
      </trkpt>
      <trkpt lat="45.60257" lon="4.78027">
        <ele>173.66</ele>
        <time>2019-03-01T08:57:47Z</time>
      </trkpt>
      <trkpt lat="45.60266" lon="4.78038">
        <ele>173.66</ele>
        <time>2019-03-01T08:57:55Z</time>
      </trkpt>
      <trkpt lat="45.6027" lon="4.78043">
        <ele>174.14</ele>
        <time>2019-03-01T08:57:59Z</time>
      </trkpt>
      <trkpt lat="45.60274" lon="4.78047">
        <ele>174.14</ele>
        <time>2019-03-01T08:58:04Z</time>
      </trkpt>
      <trkpt lat="45.6028" lon="4.78049">
        <ele>173.17</ele>
        <time>2019-03-01T08:58:08Z</time>
      </trkpt>
      <trkpt lat="45.60299" lon="4.78063">
        <ele>173.17</ele>
        <time>2019-03-01T08:58:23Z</time>
      </trkpt>
      <trkpt lat="45.60316" lon="4.78072">
        <ele>174.14</ele>
        <time>2019-03-01T08:58:37Z</time>
      </trkpt>
      <trkpt lat="45.60332" lon="4.78078">
        <ele>173.66</ele>
        <time>2019-03-01T08:58:51Z</time>
      </trkpt>
      <trkpt lat="45.60356" lon="4.78086">
        <ele>173.66</ele>
        <time>2019-03-01T08:59:08Z</time>
      </trkpt>
      <trkpt lat="45.6037" lon="4.78075">
        <ele>174.14</ele>
        <time>2019-03-01T08:59:19Z</time>
      </trkpt>
      <trkpt lat="45.60383" lon="4.78063">
        <ele>173.17</ele>
        <time>2019-03-01T08:59:30Z</time>
      </trkpt>
      <trkpt lat="45.6038" lon="4.78058">
        <ele>173.66</ele>
        <time>2019-03-01T08:59:33Z</time>
      </trkpt>
      <trkpt lat="45.60378" lon="4.78056">
        <ele>173.66</ele>
        <time>2019-03-01T08:59:34Z</time>
      </trkpt>
      <trkpt lat="45.60361" lon="4.78027">
        <ele>172.21</ele>
        <time>2019-03-01T08:59:53Z</time>
      </trkpt>
      <trkpt lat="45.60351" lon="4.7802">
        <ele>171.73</ele>
        <time>2019-03-01T08:59:57Z</time>
      </trkpt>
      <trkpt lat="45.60337" lon="4.77988">
        <ele>171.25</ele>
        <time>2019-03-01T09:00:16Z</time>
      </trkpt>
      <trkpt lat="45.60328" lon="4.77964">
        <ele>169.81</ele>
        <time>2019-03-01T09:00:33Z</time>
      </trkpt>
      <trkpt lat="45.60326" lon="4.77961">
        <ele>170.29</ele>
        <time>2019-03-01T09:00:36Z</time>
      </trkpt>
      <trkpt lat="45.60312" lon="4.7794">
        <ele>169.33</ele>
        <time>2019-03-01T09:00:52Z</time>
      </trkpt>
      <trkpt lat="45.60312" lon="4.77938">
        <ele>168.85</ele>
        <time>2019-03-01T09:00:53Z</time>
      </trkpt>
      <trkpt lat="45.60295" lon="4.779">
        <ele>168.37</ele>
        <time>2019-03-01T09:01:11Z</time>
      </trkpt>
      <trkpt lat="45.60281" lon="4.77868">
        <ele>168.37</ele>
        <time>2019-03-01T09:01:30Z</time>
      </trkpt>
      <trkpt lat="45.60291" lon="4.77833">
        <ele>161.5</ele>
      </trkpt>
      <trkpt lat="45.60309" lon="4.77809">
        <ele>161.6</ele>
      </trkpt>
      <trkpt lat="45.6033" lon="4.77774">
        <ele>161.4</ele>
      </trkpt>
      <trkpt lat="45.60349" lon="4.77747">
        <ele>161</ele>
      </trkpt>
      <trkpt lat="45.6037" lon="4.77708">
        <ele>161</ele>
      </trkpt>
      <trkpt lat="45.60398" lon="4.7767">
        <ele>161</ele>
      </trkpt>
    </trkseg>
  </trk>
</gpx>